Terminal Aerodrome Forecast
Issued by NWS Wilmington, OH

Current Version | Previous Version | Graphics & Text | Print | Product List | Glossary On
Versions: 1 2 3 4 5 6 7 8 9 10 11 12 13 14 15 16 17 18 19
000
FTUS41 KILN 130800 AAA
TAFILN
TAF AMD
KILN 130821Z 1308/1406 04005KT P6SM OVC035
      TEMPO 1311/1314 BKN012 OVC025
     FM131400 31011KT P6SM FEW030
     FM132300 03004KT P6SM SKC=

USA.gov is the U.S. government's official web portal to all federal, state and local government web resources and services.